• Join FlightAware (Why Join?)
  • Login
  • US Flag 
11:55AM EST


 

Airport Tracker/Info


-or-


 

Live Flight TrackerFlight Track Log ✈ UAL481 ✈ 18-Jun-2013 ✈ KALB - KORD

Flight Track Log - Related Links

Times and Time Zones

All times are in EDT time to prevent confusion due to time zone crossing. See the UAL481 flight status page for this flight to view local times or setup timezone preferences in your user account.

Time Position Orientation Groundspeed Altitude Reporting Facility
EDT Latitude Longitude Course Direction KTS MPH feet Rate Location/Type
06:24PM 42.7653 -73.8061 324° Northwest 135 155 1,400  Level Boston Center
06:25PM 42.8294 -73.8414 338° Northwest 230 265 3,800 2,280 Climbing Boston Center
06:26PM 42.8808 -73.8881 326° Northwest 263 303 6,500 3,480 Climbing Boston Center
06:27PM 42.8253 -74.2888 284° West  Level FlightAware Approximate
06:27PM 42.9489 -73.9433 329° Northwest 271 312 10,300  Level Boston Center
06:28PM 42.8467 -74.4131 283° West  Level FlightAware Approximate
06:28PM 43.0192 -74.0019 329° Northwest 290 334 11,900  Level Boston Center
06:29PM 42.8693 -74.5359 324° Northwest  Level FlightAware Approximate
06:29PM 43.0339 -74.1331 279° West 314 361 14,400  Level Boston Center
06:30PM 43.0425 -74.2497 276° West 341 392 17,100 2,400 Climbing Boston Center
06:31PM 43.0567 -74.4036 277° West 359 413 19,200 2,040 Climbing Boston Center
06:32PM 43.0961 -74.5328 293° West 366 421 21,200 1,800 Climbing Boston Center
06:33PM 43.1372 -74.6681 293° West 380 437 22,900 1,980 Climbing Boston Center
06:34PM 43.1825 -74.8064 294° West 391 450 25,200 2,040 Climbing Boston Center
06:35PM 43.2339 -74.9394 298° West 391 450 27,000 1,800 Climbing Boston Center
06:36PM 43.2872 -75.0642 300° West 391 450 28,800 1,260 Climbing Boston Center
06:37PM 43.3308 -75.1633 301° West 391 450 29,600 1,020 Climbing Boston Center
06:38PM 43.3536 -75.3328 281° West 387 445 30,900 1,500 Climbing Boston Center
06:39PM 43.3628 -75.4675 275° West 381 438 32,700 1,440 Climbing Boston Center
06:40PM 43.3631 -75.6047 270° West 367 422 33,800 900 Climbing Boston Center
06:42PM 43.3333 -75.8500 261° West 380 437 35,300 1,020 Climbing Toronto Center
06:43PM 43.3333 -75.9833 270° West 380 437 36,700 1,320 Climbing Toronto Center
06:44PM 43.3333 -76.1333 270° West 360 414 38,000 600 Climbing Toronto Center
06:45PM 43.3333 -76.2667 270° West 370 426 38,000  Level Toronto Center
06:46PM 43.3167 -76.4000 260° West 370 426 38,000  Level Toronto Center
06:47PM 43.3000 -76.5667 262° West 380 437 38,000  Level Toronto Center
06:48PM 43.3167 -76.7000 280° West 380 437 38,000  Level Toronto Center
06:49PM 43.3000 -76.8333 260° West 390 449 38,000  Level Toronto Center
06:50PM 43.3000 -77.0000 270° West 390 449 38,000  Level Toronto Center
06:51PM 43.2833 -77.1333 260° West 390 449 38,000 -60 Level Toronto Center
06:52PM 43.2667 -77.3000 262° West 390 449 37,900 -120 Descending Toronto Center
06:53PM 43.2833 -77.4333 280° West 390 449 37,800  Descending Toronto Center
06:54PM 43.2739 -77.6692 267° West 392 451 38,000 60 Climbing Cleveland Center
06:55PM 43.2650 -77.8178 265° West 392 451 38,000 -60 Level Cleveland Center
06:56PM 43.2581 -77.9664 266° West 392 451 37,900  Descending Cleveland Center
06:57PM 43.2508 -78.1147 266° West 392 451 38,000  Climbing Cleveland Center
06:58PM 43.2394 -78.2636 264° West 392 451 38,000  Level Cleveland Center
06:59PM 43.2339 -78.4119 267° West 392 451 38,000  Level Cleveland Center
07:00PM 43.2219 -78.5633 264° West 392 451 38,000  Level Cleveland Center
07:01PM 43.2161 -78.7144 267° West 397 457 38,000  Level Cleveland Center
07:02PM 43.2061 -78.8686 265° West 404 465 38,000  Level Cleveland Center
07:03PM 43.1833 -78.9500 249° West 400 460 38,000  Level Toronto Center
07:04PM 43.1833 -79.0833 270° West 400 460 38,000  Level Toronto Center
07:05PM 43.1667 -79.2500 262° West 400 460 38,000  Level Toronto Center
07:06PM 43.1667 -79.4000 270° West 400 460 38,000  Level Toronto Center
07:07PM 43.1500 -79.5500 261° West 410 472 38,000  Level Toronto Center
07:08PM 43.1333 -79.7000 261° West 410 472 38,000  Level Toronto Center
07:09PM 43.1333 -79.8667 270° West 410 472 38,000  Level Toronto Center
07:10PM 43.1167 -80.0167 261° West 400 460 38,000 -60 Level Toronto Center
07:11PM 43.1000 -80.1833 262° West 410 472 37,900  Descending Toronto Center
07:12PM 43.1000 -80.3167 270° West 410 472 38,000  Climbing Toronto Center
07:13PM 43.0833 -80.4833 262° West 410 472 38,000  Level Toronto Center
07:14PM 43.0667 -80.6333 261° West 410 472 38,000  Level Toronto Center
07:15PM 43.0667 -80.8000 270° West 410 472 38,000  Level Toronto Center
07:16PM 43.0333 -80.9500 253° West 410 472 38,000 -60 Level Toronto Center
07:17PM 43.0167 -81.1000 261° West 410 472 37,900  Descending Toronto Center
07:18PM 43.0167 -81.2500 270° West 410 472 38,000  Climbing Toronto Center
07:19PM 43.0167 -81.4167 270° West 410 472 38,000  Level Toronto Center
07:20PM 43.0167 -81.5667 270° West 410 472 38,000  Level Toronto Center
07:21PM 43.0167 -81.7333 270° West 410 472 38,000 -60 Level Toronto Center
07:22PM 43.0167 -81.8667 270° West 410 472 37,900  Descending Toronto Center
07:23PM 43.0000 -82.0333 262° West 410 472 38,000  Climbing Toronto Center
07:24PM 43.0000 -82.1833 270° West 410 472 38,000  Level Toronto Center
07:25PM 43.0000 -82.3500 270° West 410 472 38,000 -120 Level Toronto Center
07:26PM 43.0000 -82.5000 270° West 410 472 37,800 -540 Descending Toronto Center
07:27PM 42.9833 -82.6500 261° West 390 449 37,000 -780 Descending Toronto Center
07:27PM 43.0258 -82.7331 305° West 402 463 36,600 -780 Descending Cleveland Center
07:28PM 43.0564 -82.8789 286° West 397 457 35,800 -840 Descending Cleveland Center
07:29PM 43.0847 -83.0222 285° West 391 450 35,000 -900 Descending Cleveland Center
07:30PM 43.1128 -83.1683 285° West 396 456 34,100 -540 Descending Cleveland Center
07:31PM 43.1406 -83.3203 284° West 402 463 34,000 -180 Descending Cleveland Center
07:32PM 43.1619 -83.4722 281° West 402 463 33,800 -540 Descending Cleveland Center
07:33PM 43.1125 -83.6064 243° Southwest 383 441 33,000 -660 Descending Cleveland Center
07:34PM 43.0161 -83.7039 216° Southwest 385 443 32,500 -660 Descending Cleveland Center
07:35PM 42.9558 -83.8456 240° Southwest 411 473 31,700 -900 Descending Cleveland Center
07:36PM 42.9386 -84.0122 262° West 420 483 30,700 -900 Descending Cleveland Center
07:37PM 42.9231 -84.1786 263° West 434 499 30,000 -480 Descending Cleveland Center
07:38PM 42.9150 -84.2792 264° West 445 512 30,000  Level Chicago Center
07:39PM 42.8978 -84.4456 262° West 445 512 30,000  Level Chicago Center
07:40PM 42.8806 -84.6133 262° West 447 514 30,000  Level Chicago Center
07:41PM 42.8636 -84.7811 262° West 447 514 30,000  Level Chicago Center
07:42PM 42.8419 -84.9825 262° West 448 516 30,000  Level Chicago Center
07:43PM 42.8242 -85.1492 262° West 446 513 30,000 -60 Level Chicago Center
07:44PM 42.8064 -85.3172 262° West 448 516 29,900 -780 Descending Chicago Center
07:45PM 42.7883 -85.4772 261° West 433 498 28,500 -1,740 Descending Chicago Center
07:46PM 42.7633 -85.6272 257° West 409 471 26,300 -2,100 Descending Chicago Center
07:47PM 42.7361 -85.7772 256° West 400 460 24,200 -2,040 Descending Chicago Center
07:48PM 42.7103 -85.9167 256° West 392 451 22,200 -1,680 Descending Chicago Center
07:49PM 42.6786 -86.0906 256° West 390 449 20,800 -1,020 Descending Chicago Center
07:50PM 42.6508 -86.2439 256° West 409 471 20,100 -420 Descending Chicago Center
07:52PM 42.6217 -86.3928 255° West 408 470 20,000 -120 Descending Chicago Center
07:53PM 42.5939 -86.5433 256° West 410 472 19,900 -900 Descending Chicago Center
07:54PM 42.5633 -86.7089 256° West 407 468 18,200 -1,800 Descending Chicago Center
07:55PM 42.5322 -86.8311 251° West 389 448 16,300 -2,040 Descending Chicago Center
07:56PM 42.4967 -86.9631 250° West 377 434 14,000 -2,280 Descending Chicago Center
07:57PM 42.4528 -87.1139 249° West 360 414 11,600 -1,680 Descending Chicago Center
07:58PM 42.4200 -87.2372 250° West 351 404 10,500 -780 Descending Chicago Center
07:59PM 42.3864 -87.3567 249° West 343 395 10,000 -300 Descending Chicago Center
08:00PM 42.3517 -87.4867 250° West 344 396 10,000  Level Chicago Center
08:01PM 42.2972 -87.5781 231° Southwest 321 369 10,000 -180 Level Chicago Center
08:02PM 42.2364 -87.6419 218° Southwest 280 322 9,700 -540 Descending Chicago Center
08:03PM 42.1733 -87.7086 218° Southwest 245 282 8,900 -780 Descending Chicago Center
08:04PM 42.1283 -87.7561 218° Southwest 213 245 8,100 -720 Descending Chicago Center
08:05PM 42.0911 -87.8056 225° Southwest 199 229 7,500 -540 Descending Chicago Center
08:06PM 42.0914 -87.8725 270° West 182 209 7,000 -240 Descending Chicago Center
08:07PM 42.0914 -87.9403 270° West 184 212 7,000  Level Chicago Center
08:08PM 42.0914 -88.0217 270° West 183 211 7,000 -360 Level Chicago Center
08:09PM 42.1000 -88.1000 278° West 179 206 6,300 -840 Descending Chicago TRACON
08:10PM 42.1000 -88.1667 270° West 188 216 5,400 -960 Descending Chicago TRACON
08:11PM 42.0500 -88.2000 206° Southwest 195 224 4,500 -720 Descending Chicago TRACON
08:12PM 42.0167 -88.1667 143° Southeast 175 201 4,000 -540 Descending Chicago TRACON
08:13PM 41.9858 -88.1014 122° Southeast 173 199 3,400 -780 Descending Chicago Center
08:14PM 41.9833 -88.0500 94° East 160 184 2,500 -960 Descending Chicago TRACON
08:15PM 41.9833 -88.0000 90° East 132 152 1,700 -780 Descending Chicago TRACON
08:16PM 41.9833 -87.9500 90° East 131 151 1,000 -720 Descending Chicago TRACON
08:18PM 41.9817 -87.9067 124° Southeast  Level Estimated
08:25PM 41.9817 -87.9067 124° Southeast  Level Estimated